Time;durP1;ratioP1;P1;durP2;ratioP2;P2;SDS_P1;SDS_P2;PMS_P1;PMS_P2;Temp;Humidity;BMP_temperature;BMP_pressure;BME280_temperature;BME280_humidity;BME280_pressure;Samples;Min_cycle;Max_cycle;Signal;HPM_P1;HPM_P2
2021/03/16 00:00:11;;;;;;;5.78;2.70;;;;;;;3.49;79.29;100777.53;5047057;28;20049;-83
2021/03/16 00:02:37;;;;;;;7.50;2.80;;;;;;;3.45;81.24;100775.19;5048122;28;20059;-82
2021/03/16 00:05:03;;;;;;;6.70;2.60;;;;;;;3.36;80.81;100780.09;5053503;28;20090;-83
2021/03/16 00:07:28;;;;;;;9.15;4.13;;;;;;;3.55;79.38;100774.53;5054575;28;20033;-81
2021/03/16 00:09:53;;;;;;;8.07;2.83;;;;;;;3.46;80.25;100780.34;5046779;28;20094;-82
2021/03/16 00:12:19;;;;;;;5.15;2.17;;;;;;;3.48;81.17;100788.94;5045338;28;20078;-81
2021/03/16 00:14:45;;;;;;;4.72;1.98;;;;;;;3.50;80.48;100789.63;5044286;28;20491;-81
2021/03/16 00:17:10;;;;;;;6.25;2.53;;;;;;;3.58;79.47;100778.72;5041543;28;20040;-81
2021/03/16 00:19:36;;;;;;;8.88;3.20;;;;;;;3.72;78.56;100788.22;5054511;28;20032;-83
2021/03/16 00:22:02;;;;;;;6.22;2.45;;;;;;;3.67;78.76;100778.09;5052558;28;20037;-82
2021/03/16 00:24:27;;;;;;;5.05;2.40;;;;;;;3.70;78.75;100775.28;5043906;28;20079;-82
2021/03/16 00:26:53;;;;;;;3.25;1.70;;;;;;;3.68;79.16;100784.16;5048885;28;20648;-82
2021/03/16 00:29:18;;;;;;;7.72;2.08;;;;;;;3.66;79.29;100786.03;5050411;28;20028;-84
2021/03/16 00:31:43;;;;;;;3.08;1.75;;;;;;;3.63;79.58;100786.25;5053439;28;20464;-82
2021/03/16 00:34:09;;;;;;;2.92;1.60;;;;;;;3.63;79.99;100786.25;5033621;28;20117;-82
2021/03/16 00:36:34;;;;;;;4.15;1.70;;;;;;;3.61;79.26;100795.00;5041494;28;20394;-82
2021/03/16 00:38:59;;;;;;;2.63;1.60;;;;;;;3.58;79.38;100790.00;5054349;28;20040;-82
2021/03/16 00:41:25;;;;;;;7.88;2.78;;;;;;;3.60;79.19;100803.81;5052059;28;20083;-81
2021/03/16 00:43:52;;;;;;;5.75;2.45;;;;;;;3.63;78.61;100799.31;5054291;28;20025;-82
2021/03/16 00:46:17;;;;;;;7.43;2.88;;;;;;;3.54;80.13;100798.97;5042698;28;20380;-82
2021/03/16 00:48:43;;;;;;;7.45;3.40;;;;;;;3.59;79.63;100806.50;5041207;28;20094;-82
2021/03/16 00:51:08;;;;;;;9.35;3.03;;;;;;;3.68;78.49;100803.31;5036402;28;20037;-83
2021/03/16 00:53:33;;;;;;;9.85;3.40;;;;;;;3.67;78.41;100806.00;5050944;28;20045;-81
2021/03/16 00:55:59;;;;;;;6.05;2.50;;;;;;;3.72;78.66;100812.63;5054768;28;20037;-81
2021/03/16 00:58:28;;;;;;;9.02;3.63;;;;;;;3.74;78.53;100810.75;5052549;28;20045;-82
2021/03/16 01:00:54;;;;;;;5.22;2.20;;;;;;;3.75;78.69;100816.81;5055075;28;20114;-82
2021/03/16 01:03:20;;;;;;;4.40;1.90;;;;;;;3.77;78.32;100820.19;5045764;28;20570;-82
2021/03/16 01:05:47;;;;;;;6.68;2.47;;;;;;;3.88;77.85;100820.28;5039867;28;20032;-82
2021/03/16 01:08:12;;;;;;;4.05;1.70;;;;;;;3.89;77.62;100821.97;5056476;28;20451;-80
2021/03/16 01:10:38;;;;;;;3.38;1.48;;;;;;;3.91;78.02;100825.34;5049122;28;20033;-83
2021/03/16 01:13:03;;;;;;;7.13;2.30;;;;;;;3.94;77.73;100822.50;5052478;28;20043;-83
2021/03/16 01:15:29;;;;;;;7.50;2.60;;;;;;;3.92;78.06;100828.78;5052986;28;20506;-83
2021/03/16 01:17:54;;;;;;;7.28;2.35;;;;;;;3.95;77.57;100834.63;5049046;28;20495;-82
2021/03/16 01:20:23;;;;;;;6.65;2.40;;;;;;;3.95;77.30;100829.41;5052509;28;20493;-82
2021/03/16 01:22:48;;;;;;;9.35;3.05;;;;;;;4.07;76.91;100834.78;5053389;28;20380;-82
2021/03/16 01:25:14;;;;;;;8.55;3.22;;;;;;;4.06;76.59;100826.09;5053991;28;20198;-82
2021/03/16 01:27:39;;;;;;;5.50;2.00;;;;;;;4.04;76.95;100827.97;5053643;28;20076;-83
2021/03/16 01:30:06;;;;;;;6.38;2.42;;;;;;;4.04;76.65;100825.34;5051233;28;20118;-82
2021/03/16 01:32:32;;;;;;;7.57;2.72;;;;;;;4.03;76.61;100821.91;5050717;28;20495;-83
2021/03/16 01:34:57;;;;;;;8.45;2.45;;;;;;;3.98;76.98;100824.00;5052305;28;20043;-81
2021/03/16 01:37:22;;;;;;;5.18;2.20;;;;;;;3.97;76.97;100837.16;5052271;28;20120;-83
2021/03/16 01:39:48;;;;;;;6.78;2.33;;;;;;;3.97;77.15;100838.00;5053086;28;20029;-82
2021/03/16 01:42:15;;;;;;;5.50;2.35;;;;;;;3.78;80.29;100853.22;5050788;28;20495;-83
2021/03/16 01:44:43;;;;;;;6.88;2.33;;;;;;;3.74;81.94;100846.50;5051234;28;20116;-82
2021/03/16 01:47:10;;;;;;;6.40;2.28;;;;;;;3.61;82.07;100852.53;5049364;28;20039;-81
2021/03/16 01:49:36;;;;;;;4.18;2.15;;;;;;;3.60;83.33;100855.28;5045137;28;20025;-81
2021/03/16 01:52:02;;;;;;;8.50;3.13;;;;;;;3.57;82.87;100852.84;5049781;28;20119;-80
2021/03/16 01:54:28;;;;;;;4.85;2.40;;;;;;;3.55;82.03;100845.13;5051306;28;20059;-82
2021/03/16 01:56:54;;;;;;;4.22;2.25;;;;;;;3.48;84.57;100841.22;5050066;28;20040;-82
2021/03/16 01:59:20;;;;;;;4.78;1.88;;;;;;;3.50;84.23;100849.78;5049431;28;20056;-82
2021/03/16 02:01:46;;;;;;;6.18;2.20;;;;;;;3.53;83.96;100844.38;5043824;28;20065;-81
2021/03/16 02:04:12;;;;;;;11.60;3.20;;;;;;;3.67;81.47;100845.22;5048796;28;20163;-83
2021/03/16 02:06:50;;;;;;;7.30;2.95;;;;;;;3.60;82.69;100844.81;5050694;28;20322;-81
2021/03/16 02:09:26;;;;;;;3.38;1.70;;;;;;;3.63;83.39;100849.00;5039028;28;20056;-83
2021/03/16 02:12:11;;;;;;;5.15;2.20;;;;;;;3.61;82.51;100855.16;5045994;28;20174;-81
2021/03/16 02:14:44;;;;;;;5.60;1.80;;;;;;;3.60;84.00;100850.88;5052956;28;20029;-81
2021/03/16 02:17:18;;;;;;;2.90;1.30;;;;;;;3.66;83.38;100861.88;5051168;28;20486;-83
2021/03/16 02:19:52;;;;;;;4.15;1.88;;;;;;;3.69;82.46;100865.13;5038792;28;20037;-82
2021/03/16 02:22:19;;;;;;;5.30;2.03;;;;;;;3.65;83.19;100860.19;5049385;28;20029;-83
2021/03/16 02:25:09;;;;;;;6.82;2.30;;;;;;;3.73;82.07;100871.00;5037293;28;20092;-83
2021/03/16 02:27:57;;;;;;;7.88;2.80;;;;;;;3.82;81.49;100870.41;5050336;28;20114;-82
2021/03/16 02:30:24;;;;;;;3.85;1.50;;;;;;;3.74;81.87;100863.06;5051989;28;20089;-83
2021/03/16 02:32:50;;;;;;;4.38;1.70;;;;;;;3.75;82.08;100869.13;5048421;28;20047;-83
2021/03/16 02:35:18;;;;;;;2.55;1.20;;;;;;;3.80;82.14;100869.66;5051422;28;20037;-81
2021/03/16 02:37:45;;;;;;;4.15;1.70;;;;;;;3.82;82.01;100875.66;5051299;28;20037;-83
2021/03/16 02:40:14;;;;;;;4.22;2.25;;;;;;;3.79;84.14;100878.44;5052592;28;20075;-83
2021/03/16 02:42:40;;;;;;;5.88;1.90;;;;;;;3.76;82.49;100883.88;5056329;28;20059;-82
2021/03/16 02:45:09;;;;;;;2.92;1.70;;;;;;;3.70;83.44;100881.66;5056402;28;20498;-82
2021/03/16 02:47:35;;;;;;;5.65;1.50;;;;;;;3.72;83.47;100883.25;5038093;28;20029;-83
2021/03/16 02:50:01;;;;;;;4.88;1.70;;;;;;;3.73;83.63;100878.84;5039673;28;20026;-81
2021/03/16 02:52:27;;;;;;;4.05;1.73;;;;;;;3.80;82.54;100877.50;5034009;28;20043;-82
2021/03/16 02:54:55;;;;;;;4.03;1.45;;;;;;;3.81;82.45;100874.81;5038147;28;20078;-82
2021/03/16 02:57:22;;;;;;;5.35;1.42;;;;;;;3.88;81.93;100871.78;5049965;28;20491;-82
2021/03/16 02:59:49;;;;;;;3.55;1.40;;;;;;;3.90;81.99;100870.75;5042001;28;20448;-83
2021/03/16 03:02:16;;;;;;;4.43;1.90;;;;;;;3.93;82.82;100882.78;5048458;28;20025;-82
2021/03/16 03:04:45;;;;;;;4.70;1.70;;;;;;;3.99;81.75;100882.38;5050083;28;20029;-83
2021/03/16 03:07:12;;;;;;;5.72;1.75;;;;;;;4.04;81.67;100885.53;5048108;28;20124;-83
2021/03/16 03:09:38;;;;;;;6.45;2.53;;;;;;;4.10;81.01;100889.53;5049501;28;20098;-82
2021/03/16 03:12:09;;;;;;;7.53;2.45;;;;;;;4.11;81.13;100888.59;5048401;28;20518;-83
2021/03/16 03:14:37;;;;;;;7.55;2.70;;;;;;;3.97;82.83;100889.50;5049696;28;20151;-81
2021/03/16 03:17:05;;;;;;;5.80;2.00;;;;;;;4.00;81.66;100895.38;5049226;28;20039;-81
2021/03/16 03:19:30;;;;;;;7.93;2.90;;;;;;;3.96;82.34;100904.38;5037590;28;20040;-83
2021/03/16 03:22:10;;;;;;;7.10;2.55;;;;;;;3.94;81.02;100908.84;5057318;28;20124;-83
2021/03/16 03:24:44;;;;;;;8.73;2.88;;;;;;;4.02;80.51;100916.19;5057531;28;20046;-82
2021/03/16 03:27:19;;;;;;;7.97;2.70;;;;;;;3.99;80.45;100925.09;5055758;28;20043;-82
2021/03/16 03:29:47;;;;;;;9.32;2.88;;;;;;;3.91;81.85;100935.22;5058162;28;20025;-82
2021/03/16 03:32:14;;;;;;;5.80;2.33;;;;;;;3.85;81.79;100935.59;5055279;28;20463;-83
2021/03/16 03:34:42;;;;;;;4.85;2.30;;;;;;;3.86;81.66;100933.81;5055450;28;20032;-82
2021/03/16 03:37:08;;;;;;;4.43;1.98;;;;;;;3.78;82.01;100929.09;5052940;28;20083;-82
2021/03/16 03:39:36;;;;;;;5.53;2.20;;;;;;;3.73;82.06;100937.22;5055401;28;20067;-81
2021/03/16 03:42:02;;;;;;;6.70;2.60;;;;;;;3.66;83.04;100935.09;5047011;28;20068;-83
2021/03/16 03:44:31;;;;;;;10.27;3.33;;;;;;;3.57;85.58;100933.91;5053128;28;20086;-82
2021/03/16 03:46:57;;;;;;;3.28;1.73;;;;;;;3.52;85.93;100949.88;5044966;28;20030;-82
2021/03/16 03:49:23;;;;;;;6.45;2.33;;;;;;;3.61;84.14;100940.63;5046155;28;20061;-83
2021/03/16 03:51:50;;;;;;;6.85;2.30;;;;;;;3.58;86.64;100944.28;5044376;28;20040;-82
2021/03/16 03:54:18;;;;;;;6.28;2.63;;;;;;;3.52;85.59;100942.03;5053774;28;20033;-83
2021/03/16 03:56:45;;;;;;;5.95;2.10;;;;;;;3.53;84.09;100943.72;5054092;28;20132;-83
2021/03/16 03:59:11;;;;;;;4.40;1.63;;;;;;;3.53;85.64;100946.34;5054342;28;20072;-84
2021/03/16 04:01:36;;;;;;;4.75;2.50;;;;;;;3.48;86.79;100953.63;5054001;28;20033;-83
2021/03/16 04:04:04;;;;;;;7.20;2.90;;;;;;;3.49;85.29;100957.09;5053706;28;20094;-84
2021/03/16 04:06:30;;;;;;;4.53;1.80;;;;;;;3.49;86.69;100970.16;5054992;28;20033;-83
2021/03/16 04:08:56;;;;;;;5.82;1.77;;;;;;;3.48;86.38;100965.84;5054308;28;20433;-82
2021/03/16 04:11:22;;;;;;;7.45;2.40;;;;;;;3.51;85.25;100960.44;5047639;28;20098;-82
2021/03/16 04:13:49;;;;;;;6.10;2.20;;;;;;;3.53;85.17;100961.19;5052951;28;20033;-82
2021/03/16 04:16:16;;;;;;;4.90;1.70;;;;;;;3.51;87.37;100969.13;5060253;28;20129;-83
2021/03/16 04:18:43;;;;;;;4.38;1.75;;;;;;;3.52;86.49;100969.97;5060200;28;20032;-82
2021/03/16 04:21:10;;;;;;;2.67;1.40;;;;;;;3.54;86.17;100968.09;5053051;28;20056;-82
2021/03/16 04:23:36;;;;;;;2.45;1.15;;;;;;;3.55;85.35;100954.94;5053304;28;20494;-83
2021/03/16 04:26:01;;;;;;;3.60;1.70;;;;;;;3.53;86.53;100959.41;5052782;28;20274;-82
2021/03/16 04:28:26;;;;;;;2.78;1.33;;;;;;;3.52;85.41;100970.78;5052281;28;20033;-82
2021/03/16 04:30:53;;;;;;;3.22;1.40;;;;;;;3.58;84.78;100966.97;5051380;28;20045;-81
2021/03/16 04:33:19;;;;;;;2.15;1.17;;;;;;;3.57;85.21;100973.94;5043560;28;20040;-82
2021/03/16 04:35:45;;;;;;;7.30;2.42;;;;;;;3.63;84.40;100964.06;5051066;28;20104;-82
2021/03/16 04:38:10;;;;;;;2.70;1.38;;;;;;;3.61;85.98;100977.22;5052132;28;20025;-82
2021/03/16 04:40:35;;;;;;;2.15;1.20;;;;;;;3.60;85.00;100983.41;5052369;28;20530;-82
2021/03/16 04:43:01;;;;;;;1.60;1.10;;;;;;;3.58;85.33;100980.03;5052647;28;20549;-82
2021/03/16 04:45:26;;;;;;;3.53;1.48;;;;;;;3.60;84.96;100979.00;5050955;28;20120;-82
2021/03/16 04:47:52;;;;;;;4.78;1.90;;;;;;;3.53;87.24;100974.28;5049274;28;20045;-82
2021/03/16 04:50:17;;;;;;;5.43;2.40;;;;;;;3.49;87.45;100985.84;5050380;28;20033;-82
2021/03/16 04:52:42;;;;;;;7.68;2.47;;;;;;;3.52;85.29;100983.84;5046792;28;20036;-80
2021/03/16 04:55:08;;;;;;;3.83;1.90;;;;;;;3.50;86.22;100988.34;5051199;28;20029;-83
2021/03/16 04:57:33;;;;;;;6.43;2.50;;;;;;;3.45;87.77;101000.84;5049259;28;20033;-82
2021/03/16 04:59:59;;;;;;;8.05;3.42;;;;;;;3.44;87.52;100998.34;5052414;28;20041;-81
2021/03/16 05:02:24;;;;;;;6.50;2.60;;;;;;;3.51;86.70;100995.28;5050621;28;20041;-82
2021/03/16 05:04:49;;;;;;;3.97;2.53;;;;;;;3.43;87.70;100996.66;5051601;28;20033;-81
2021/03/16 05:07:14;;;;;;;7.72;3.90;;;;;;;3.36;88.34;101017.97;5052830;28;20033;-82
2021/03/16 05:09:40;;;;;;;8.57;3.70;;;;;;;3.42;87.35;101015.91;5038700;28;20044;-84
2021/03/16 05:12:06;;;;;;;11.82;4.22;;;;;;;3.35;86.66;101031.97;5049773;28;20094;-83
2021/03/16 05:14:31;;;;;;;9.50;3.50;;;;;;;3.39;86.04;101028.22;5049767;28;20033;-83
2021/03/16 05:16:57;;;;;;;8.68;3.03;;;;;;;3.38;85.91;101033.53;5047639;28;20030;-82
2021/03/16 05:19:23;;;;;;;8.57;3.00;;;;;;;3.36;86.45;101038.88;5041478;28;20036;-82
2021/03/16 05:21:48;;;;;;;9.73;3.40;;;;;;;3.33;86.95;101040.81;5046406;28;20490;-81
2021/03/16 05:24:13;;;;;;;6.53;3.30;;;;;;;3.27;87.48;101043.81;5049483;28;20124;-82
2021/03/16 05:26:39;;;;;;;9.85;3.88;;;;;;;3.23;87.66;101045.75;5050667;28;20037;-82
2021/03/16 05:29:04;;;;;;;12.93;4.10;;;;;;;3.19;87.78;101041.66;5043130;28;20033;-81
2021/03/16 05:31:29;;;;;;;9.85;4.35;;;;;;;3.21;87.79;101047.63;5052197;28;20423;-82
2021/03/16 05:33:55;;;;;;;7.90;3.28;;;;;;;3.26;88.08;101044.75;5050884;28;20025;-81
2021/03/16 05:36:20;;;;;;;9.13;3.22;;;;;;;3.26;88.13;101052.59;5044788;28;20041;-81
2021/03/16 05:38:45;;;;;;;10.55;3.80;;;;;;;3.24;88.26;101054.44;5033142;28;20129;-83
2021/03/16 05:41:11;;;;;;;11.80;4.18;;;;;;;3.21;88.38;101054.63;5031767;28;20042;-83
2021/03/16 05:43:38;;;;;;;8.23;3.47;;;;;;;3.24;88.23;101057.88;5045042;28;20393;-82
2021/03/16 05:46:03;;;;;;;6.53;3.22;;;;;;;3.25;87.84;101056.97;5049351;28;20064;-82
2021/03/16 05:48:29;;;;;;;9.10;3.35;;;;;;;3.30;87.97;101061.94;5050008;28;20033;-82
2021/03/16 05:50:58;;;;;;;8.27;3.85;;;;;;;3.32;88.04;101058.28;5058392;28;20021;-80
2021/03/16 05:53:24;;;;;;;8.02;3.33;;;;;;;3.30;88.21;101060.16;5052947;28;20434;-83
2021/03/16 05:55:49;;;;;;;5.68;2.95;;;;;;;3.35;86.83;101060.72;5051551;28;20063;-82
2021/03/16 05:58:15;;;;;;;4.75;2.45;;;;;;;3.44;86.72;101059.31;5049352;28;20462;-81
2021/03/16 06:00:40;;;;;;;8.07;2.95;;;;;;;3.46;86.46;101059.25;5040934;28;20033;-84
2021/03/16 06:03:06;;;;;;;5.80;2.72;;;;;;;3.48;86.55;101057.34;5039905;28;20033;-81
2021/03/16 06:05:31;;;;;;;4.03;2.13;;;;;;;3.46;86.89;101065.31;5050684;28;20029;-81
2021/03/16 06:07:56;;;;;;;8.00;2.90;;;;;;;3.42;87.39;101066.41;5043309;28;20056;-82
2021/03/16 06:10:23;;;;;;;7.03;3.67;;;;;;;3.48;86.26;101073.91;5045978;28;20036;-81
2021/03/16 06:12:48;;;;;;;7.25;2.65;;;;;;;3.51;85.98;101067.66;5049094;28;20037;-83
2021/03/16 06:15:16;;;;;;;5.40;2.13;;;;;;;3.50;86.40;101074.63;5051337;28;20037;-82
2021/03/16 06:17:43;;;;;;;4.32;1.85;;;;;;;3.53;86.34;101077.06;5038302;28;20406;-81
2021/03/16 06:20:11;;;;;;;3.22;1.48;;;;;;;3.59;86.27;101081.91;5049458;28;20044;-84
2021/03/16 06:22:36;;;;;;;2.63;1.50;;;;;;;3.67;86.55;101081.47;5051213;28;20510;-82
2021/03/16 06:25:02;;;;;;;3.58;1.90;;;;;;;3.71;86.49;101088.19;5051941;28;20059;-82
2021/03/16 06:27:28;;;;;;;2.17;1.20;;;;;;;3.77;86.04;101094.81;5050163;28;20032;-81
2021/03/16 06:29:54;;;;;;;6.20;2.50;;;;;;;3.75;87.31;101094.91;5049403;28;20124;-83
2021/03/16 06:32:20;;;;;;;2.35;1.60;;;;;;;3.80;86.43;101098.06;5050291;28;20033;-83
2021/03/16 06:34:45;;;;;;;6.53;2.92;;;;;;;3.90;85.62;101105.38;5044760;28;20040;-82
2021/03/16 06:37:11;;;;;;;5.20;2.00;;;;;;;3.87;86.04;101106.41;5051838;28;20033;-84
2021/03/16 06:39:44;;;;;;;5.15;2.03;;;;;;;3.92;85.67;101101.72;5050664;28;20056;-81
2021/03/16 06:42:26;;;;;;;3.72;1.88;;;;;;;3.97;85.74;101102.25;5050868;28;20033;-83
2021/03/16 06:45:07;;;;;;;6.05;2.60;;;;;;;3.95;87.33;101114.59;5041501;28;20039;-83
2021/03/16 06:47:39;;;;;;;;;;;;;;;4.02;86.24;101115.06;5032112;28;20580;-83
2021/03/16 06:50:05;;;;;;;2.95;1.52;;;;;;;4.08;85.79;101106.84;5040947;28;20206;-82
2021/03/16 06:52:30;;;;;;;8.20;2.67;;;;;;;4.19;85.30;101116.63;5051208;28;20437;-83
2021/03/16 06:55:09;;;;;;;5.00;2.30;;;;;;;4.17;85.17;101121.97;5055421;28;20035;-83
2021/03/16 06:57:34;;;;;;;5.93;2.30;;;;;;;4.13;86.42;101125.72;5054448;28;20285;-83
2021/03/16 07:00:09;;;;;;;10.05;3.78;;;;;;;4.28;84.75;101125.69;5054874;28;20398;-82
2021/03/16 07:02:35;;;;;;;8.90;3.78;;;;;;;4.30;84.41;101122.03;5052347;28;20032;-83
2021/03/16 07:05:00;;;;;;;4.80;2.25;;;;;;;4.29;84.82;101128.22;5053683;28;20037;-83
2021/03/16 07:07:28;;;;;;;7.72;3.55;;;;;;;4.45;84.19;101138.56;5049022;28;20056;-82
2021/03/16 07:09:55;;;;;;;9.85;3.65;;;;;;;4.46;83.43;101138.47;5054768;28;20138;-83
2021/03/16 07:12:21;;;;;;;11.68;3.80;;;;;;;4.50;83.05;101149.56;5039727;28;20192;-82
2021/03/16 07:14:47;;;;;;;6.60;3.10;;;;;;;4.49;83.24;101144.47;5039321;28;20030;-83
2021/03/16 07:17:14;;;;;;;5.32;2.45;;;;;;;4.53;83.51;101149.41;5045983;28;20036;-82
2021/03/16 07:19:43;;;;;;;7.15;2.30;;;;;;;4.61;83.36;101154.97;5052481;28;20280;-83
2021/03/16 07:22:18;;;;;;;10.63;3.67;;;;;;;4.72;82.75;101151.69;5055071;28;20029;-82
2021/03/16 07:24:44;;;;;;;6.35;2.90;;;;;;;4.70;83.26;101160.59;5053804;28;20416;-85
2021/03/16 07:27:09;;;;;;;6.50;2.95;;;;;;;4.66;85.07;101171.25;5054200;28;20040;-82
2021/03/16 07:29:35;;;;;;;12.85;4.57;;;;;;;4.85;81.93;101168.28;5052927;28;20040;-82
2021/03/16 07:32:04;;;;;;;13.13;4.15;;;;;;;4.80;81.29;101172.16;5051971;28;20120;-82
2021/03/16 07:34:30;;;;;;;10.38;3.45;;;;;;;4.82;81.92;101186.84;5050286;28;20040;-82
2021/03/16 07:36:56;;;;;;;8.63;3.33;;;;;;;4.72;82.88;101183.13;5054377;28;20025;-82
2021/03/16 07:39:23;;;;;;;8.15;3.08;;;;;;;4.80;82.27;101191.31;5053607;28;20041;-81
2021/03/16 07:41:51;;;;;;;10.90;3.72;;;;;;;4.70;82.71;101185.00;5054682;28;20422;-82
2021/03/16 07:44:17;;;;;;;8.65;3.15;;;;;;;4.77;82.20;101188.06;5043923;28;20030;-82
2021/03/16 07:46:58;;;;;;;13.13;3.92;;;;;;;4.81;82.32;101193.00;5054679;28;20363;-82
2021/03/16 07:49:32;;;;;;;9.40;3.47;;;;;;;4.90;82.35;101194.19;5048585;28;20076;-83
2021/03/16 07:51:59;;;;;;;6.13;2.67;;;;;;;4.96;81.32;101191.19;5052346;28;20056;-83
2021/03/16 07:54:40;;;;;;;7.82;3.40;;;;;;;5.14;81.23;101202.25;5054245;28;20040;-83
2021/03/16 07:57:06;;;;;;;10.27;4.20;;;;;;;4.99;81.08;101203.25;5052148;28;20528;-82
2021/03/16 07:59:33;;;;;;;7.65;3.25;;;;;;;5.10;80.87;101204.25;5035150;28;20038;-82
2021/03/16 08:01:59;;;;;;;8.82;3.55;;;;;;;5.14;80.31;101202.25;5050816;28;20044;-83
2021/03/16 08:04:35;;;;;;;8.30;3.60;;;;;;;5.15;80.10;101211.81;5052816;28;20516;-82
2021/03/16 08:07:02;;;;;;;9.73;3.75;;;;;;;5.19;78.94;101213.25;5054696;28;20036;-81
2021/03/16 08:09:27;;;;;;;7.38;3.42;;;;;;;5.22;79.99;101201.72;5053939;28;20029;-83
2021/03/16 08:11:52;;;;;;;11.18;5.40;;;;;;;5.00;79.40;101202.31;5052425;28;20037;-83
2021/03/16 08:14:27;;;;;;;9.38;4.35;;;;;;;5.01;79.79;101207.44;5051785;28;20092;-81
2021/03/16 08:16:53;;;;;;;18.33;4.88;;;;;;;4.94;79.38;101219.28;5034315;28;20117;-83
2021/03/16 08:19:34;;;;;;;11.55;4.35;;;;;;;4.75;78.77;101216.16;5050767;28;20037;-83
2021/03/16 08:21:59;;;;;;;10.80;4.27;;;;;;;4.62;79.78;101224.78;5042938;28;20038;-83
2021/03/16 08:24:36;;;;;;;15.98;4.95;;;;;;;4.68;79.14;101220.94;5047708;28;20037;-83
2021/03/16 08:27:05;;;;;;;9.48;4.13;;;;;;;4.62;79.61;101221.28;5049016;28;20034;-84
2021/03/16 08:29:31;;;;;;;9.30;4.45;;;;;;;4.80;79.10;101219.31;5049338;28;20107;-83
2021/03/16 08:31:58;;;;;;;11.85;5.13;;;;;;;4.83;78.82;101222.56;5045550;28;20433;-83
2021/03/16 08:34:26;;;;;;;6.65;3.40;;;;;;;4.89;79.31;101223.97;5049174;28;20052;-82
2021/03/16 08:36:51;;;;;;;9.55;4.07;;;;;;;4.91;78.56;101224.72;5045873;28;20680;-84
2021/03/16 08:39:27;;;;;;;6.13;3.20;;;;;;;5.07;80.65;101228.00;5051220;28;20064;-84
2021/03/16 08:41:57;;;;;;;12.35;5.03;;;;;;;5.10;78.08;101233.06;5050753;28;20102;-84
2021/03/16 08:44:25;;;;;;;9.48;4.30;;;;;;;5.21;78.69;101234.16;5054694;28;20526;-83
2021/03/16 08:46:51;;;;;;;12.32;3.97;;;;;;;5.30;76.87;101230.94;5044760;28;20056;-84
2021/03/16 08:49:20;;;;;;;6.88;3.80;;;;;;;5.32;76.18;101234.31;5055067;28;20037;-83
2021/03/16 08:51:46;;;;;;;12.90;4.88;;;;;;;5.25;76.78;101230.41;5052541;28;20025;-83
2021/03/16 08:54:21;;;;;;;9.70;4.75;;;;;;;5.30;76.28;101237.00;5056823;28;20441;-83
2021/03/16 08:56:48;;;;;;;10.70;3.85;;;;;;;5.35;75.56;101225.38;5049226;28;20073;-83
2021/03/16 08:59:13;;;;;;;11.27;5.10;;;;;;;5.29;76.56;101232.72;5046412;28;20098;-83
2021/03/16 09:01:39;;;;;;;10.15;4.10;;;;;;;5.28;76.88;101233.66;5042072;28;20483;-83
2021/03/16 09:04:11;;;;;;;9.52;3.65;;;;;;;5.31;76.77;101232.59;5050771;28;20116;-83
2021/03/16 09:06:37;;;;;;;11.93;3.47;;;;;;;5.18;75.61;101226.50;5055477;28;20526;-82
2021/03/16 09:09:04;;;;;;;9.65;3.58;;;;;;;5.19;76.76;101234.25;5054063;28;20146;-83
2021/03/16 09:11:37;;;;;;;13.82;4.18;;;;;;;5.17;77.21;101243.97;5055189;28;20029;-84
2021/03/16 09:14:10;;;;;;;10.15;3.47;;;;;;;5.14;75.76;101249.44;5053167;28;20119;-83
2021/03/16 09:16:51;;;;;;;11.63;3.30;;;;;;;5.12;76.46;101240.81;5053803;28;20052;-83
2021/03/16 09:19:19;;;;;;;9.32;3.97;;;;;;;5.23;76.48;101248.00;5052151;28;20075;-83
2021/03/16 09:22:05;;;;;;;8.23;3.33;;;;;;;5.39;77.12;101240.00;5045540;28;20029;-82
2021/03/16 09:24:32;;;;;;;7.90;2.78;;;;;;;5.40;77.60;101250.34;5049503;28;20037;-83
2021/03/16 09:27:03;;;;;;;8.90;3.80;;;;;;;5.49;75.52;101247.13;5049358;28;20061;-83
2021/03/16 09:29:34;;;;;;;8.95;3.20;;;;;;;5.65;76.13;101249.59;5054103;28;20049;-83
2021/03/16 09:32:01;;;;;;;5.55;2.72;;;;;;;5.64;75.94;101250.53;5054424;28;20434;-84
2021/03/16 09:34:27;;;;;;;8.15;3.00;;;;;;;5.63;72.64;101250.66;5055178;28;20032;-83
2021/03/16 09:37:00;;;;;;;10.77;3.10;;;;;;;5.79;74.17;101239.94;5051236;28;20120;-82
2021/03/16 09:39:25;;;;;;;8.27;3.10;;;;;;;5.85;71.93;101244.78;5052025;28;20068;-83
2021/03/16 09:41:59;;;;;;;10.13;2.90;;;;;;;6.06;72.61;101243.38;5054300;28;20057;-80
2021/03/16 09:44:39;;;;;;;6.55;2.20;;;;;;;6.12;72.77;101249.97;5051673;28;20037;-83
2021/03/16 09:47:05;;;;;;;6.60;2.40;;;;;;;6.25;73.91;101244.72;5049463;28;20120;-82
2021/03/16 09:49:39;;;;;;;9.80;2.60;;;;;;;6.33;72.23;101242.41;5045323;28;20116;-82
2021/03/16 09:52:12;;;;;;;8.52;2.95;;;;;;;6.42;71.08;101238.31;5043380;28;20041;-81
2021/03/16 09:54:38;;;;;;;8.93;2.80;;;;;;;6.49;71.00;101244.81;5051991;28;20238;-82
2021/03/16 09:57:09;;;;;;;8.13;2.58;;;;;;;6.54;71.48;101237.44;5049688;28;20045;-81
2021/03/16 09:59:39;;;;;;;6.85;2.58;;;;;;;6.85;70.65;101230.00;5052191;28;20037;-82
2021/03/16 10:02:05;;;;;;;9.57;2.63;;;;;;;6.85;69.99;101228.22;5052214;28;20029;-81
2021/03/16 10:04:48;;;;;;;10.43;2.90;;;;;;;6.87;69.79;101231.56;5052196;28;20033;-82
2021/03/16 10:07:30;;;;;;;4.28;1.95;;;;;;;7.07;70.72;101230.13;5052129;28;20518;-83
2021/03/16 10:10:12;;;;;;;6.55;2.65;;;;;;;7.28;69.18;101222.44;5040224;28;20052;-83
2021/03/16 10:12:39;;;;;;;10.20;3.60;;;;;;;7.42;68.36;101224.88;5050295;28;20112;-83
2021/03/16 10:15:07;;;;;;;8.35;3.00;;;;;;;7.32;64.82;101231.78;5052387;28;20037;-83
2021/03/16 10:17:33;;;;;;;10.00;3.08;;;;;;;7.30;67.06;101236.31;5044765;28;20065;-83
2021/03/16 10:20:06;;;;;;;10.07;3.72;;;;;;;7.41;66.91;101228.50;5049646;28;20033;-82
2021/03/16 10:22:33;;;;;;;8.15;3.45;;;;;;;7.48;65.57;101230.66;5046598;28;20041;-82
2021/03/16 10:25:01;;;;;;;11.00;3.83;;;;;;;7.40;64.88;101224.16;5049513;28;20040;-81
2021/03/16 10:27:31;;;;;;;10.50;3.50;;;;;;;7.55;64.46;101227.44;5052393;28;20470;-83
2021/03/16 10:30:02;;;;;;;10.80;3.20;;;;;;;7.56;65.60;101221.22;5045823;28;20391;-83
2021/03/16 10:32:27;;;;;;;7.18;3.20;;;;;;;7.47;63.15;101223.72;5051721;28;20473;-82
2021/03/16 10:34:52;;;;;;;9.20;3.38;;;;;;;7.44;62.41;101223.00;5041848;28;20032;-82
2021/03/16 10:37:20;;;;;;;6.18;3.10;;;;;;;7.41;63.54;101217.97;5045917;28;20043;-80
2021/03/16 10:39:46;;;;;;;7.63;2.95;;;;;;;7.27;64.51;101227.81;5045194;28;20125;-79
2021/03/16 10:42:12;;;;;;;10.00;3.58;;;;;;;7.20;61.10;101225.66;5046807;28;20060;-81
2021/03/16 10:44:37;;;;;;;8.55;2.85;;;;;;;7.13;62.26;101226.22;5042148;28;20060;-81
2021/03/16 10:47:02;;;;;;;7.15;3.10;;;;;;;7.12;63.82;101225.34;5047614;28;20072;-81
2021/03/16 10:49:27;;;;;;;8.18;3.08;;;;;;;7.16;63.94;101223.34;5047530;28;20041;-81
2021/03/16 10:51:53;;;;;;;8.95;2.47;;;;;;;7.23;63.01;101240.34;5047826;28;20033;-83
2021/03/16 10:54:18;;;;;;;7.57;2.35;;;;;;;7.20;63.31;101237.97;5051001;28;20463;-81
2021/03/16 10:56:43;;;;;;;8.00;2.15;;;;;;;7.29;64.43;101234.63;5042254;28;20107;-82
2021/03/16 10:59:09;;;;;;;8.25;2.30;;;;;;;7.30;62.81;101235.50;5046663;28;20025;-82
2021/03/16 11:01:34;;;;;;;7.80;2.28;;;;;;;7.38;64.28;101231.31;5042231;28;20110;-83
2021/03/16 11:03:59;;;;;;;7.18;2.40;;;;;;;7.40;63.06;101237.31;5049888;28;20511;-83
2021/03/16 11:06:25;;;;;;;6.32;2.20;;;;;;;7.49;62.02;101232.34;5045125;28;20033;-83
2021/03/16 11:08:50;;;;;;;7.38;2.00;;;;;;;7.55;63.04;101231.88;5052207;28;20494;-83
2021/03/16 11:11:15;;;;;;;6.57;1.80;;;;;;;7.70;61.58;101235.13;5048611;28;20094;-82
2021/03/16 11:13:40;;;;;;;7.00;1.90;;;;;;;7.67;60.35;101238.84;5043875;28;20521;-81
2021/03/16 11:16:06;;;;;;;6.53;1.77;;;;;;;7.66;61.23;101240.63;5046369;28;20109;-82
2021/03/16 11:18:31;;;;;;;4.55;1.80;;;;;;;7.79;61.44;101237.06;5042785;28;20045;-82
2021/03/16 11:20:56;;;;;;;4.82;2.15;;;;;;;7.78;63.49;101227.50;5051284;28;20128;-82
2021/03/16 11:23:22;;;;;;;4.75;1.88;;;;;;;7.87;62.25;101224.19;5048721;28;20037;-81
2021/03/16 11:25:47;;;;;;;5.57;1.80;;;;;;;7.86;61.01;101225.97;5037223;28;20450;-82
2021/03/16 11:28:12;;;;;;;6.07;2.10;;;;;;;7.81;61.42;101225.47;5051039;28;20680;-82
2021/03/16 11:30:37;;;;;;;5.22;1.80;;;;;;;7.92;60.69;101229.94;5050853;28;20060;-82
2021/03/16 11:33:03;;;;;;;5.35;1.92;;;;;;;7.86;56.87;101230.38;5050975;28;20152;-82